Neptune City, New Jersey
Current Conditions -  °F | °C
As of 3:15 PM on Thursday 18 Dec 2014 (Local Time) from KBLM Reporting Station
Clear Clear  
Wind Chill: 32°   Ceiling: Unl
Heat Index: 41°   Visibility: 10mi
Dew Point: 21°   Wind: 17mph
Humidity: 45%   Direction: 300°WNW
Pressure: 29.95"   Gusts: 28mph
Location:  40.2205°N, 74.0818°W
Report Text: KBLM 182015Z AUTO 30015G24KT 10SM CLR 05/M06 A2995 RMK AO1
Loading
Personal Weather Stations






























Interactive Weather Map New forecast layout! Learn more

10-Day Weather Forecast

Advertisements
Track Severe Weather on mobile